createdAt,value
2022-12-09T00:01:19.510Z,18.70
2022-12-09T00:03:47.197Z,19.10
2022-12-09T00:06:17.434Z,18.50
2022-12-09T00:08:45.065Z,16.70
2022-12-09T00:11:13.432Z,23.00
2022-12-09T00:13:41.145Z,19.90
2022-12-09T00:16:10.750Z,24.70
2022-12-09T00:18:38.357Z,23.40
2022-12-09T00:21:34.222Z,20.70
2022-12-09T00:26:29.444Z,18.70
2022-12-09T00:28:57.253Z,16.20
2022-12-09T00:31:27.119Z,18.00
2022-12-09T00:33:59.874Z,17.20
2022-12-09T00:36:28.500Z,16.90
2022-12-09T00:38:57.253Z,21.20
2022-12-09T00:41:24.209Z,26.70
2022-12-09T00:43:51.455Z,30.40
2022-12-09T00:46:18.591Z,32.00
2022-12-09T00:48:46.361Z,29.50
2022-12-09T00:51:16.631Z,29.30
2022-12-09T00:53:43.552Z,27.60
2022-12-09T00:56:10.556Z,27.70
2022-12-09T00:58:37.297Z,29.90
2022-12-09T01:01:04.152Z,27.10
2022-12-09T01:03:31.211Z,29.30
2022-12-09T01:05:58.089Z,27.00
2022-12-09T01:08:25.202Z,27.80
2022-12-09T01:10:52.259Z,31.30
2022-12-09T01:13:19.095Z,29.00
2022-12-09T01:15:47.565Z,29.80
2022-12-09T01:18:14.401Z,25.10
2022-12-09T01:20:41.272Z,24.80
2022-12-09T01:23:08.557Z,23.60
2022-12-09T01:25:38.064Z,24.00
2022-12-09T01:28:05.079Z,23.40
2022-12-09T01:30:32.106Z,23.30
2022-12-09T01:32:58.850Z,24.10
2022-12-09T01:35:26.496Z,24.70
2022-12-09T01:37:53.213Z,21.80
2022-12-09T01:40:20.239Z,21.50
2022-12-09T01:42:50.061Z,23.60
2022-12-09T01:45:21.359Z,22.00
2022-12-09T01:48:00.364Z,23.40
2022-12-09T01:50:28.925Z,22.00
2022-12-09T01:52:56.877Z,22.60
2022-12-09T01:55:25.517Z,23.20
2022-12-09T01:57:53.606Z,23.10
2022-12-09T02:00:20.925Z,23.10
2022-12-09T02:02:51.590Z,22.10
2022-12-09T02:05:21.892Z,21.00
2022-12-09T02:07:53.808Z,20.70
2022-12-09T02:10:22.555Z,20.90
2022-12-09T02:13:36.609Z,20.60
2022-12-09T02:16:09.676Z,20.80
2022-12-09T02:18:45.980Z,20.10
2022-12-09T02:21:28.995Z,20.40
2022-12-09T02:24:08.311Z,19.90
2022-12-09T02:26:44.056Z,18.80
2022-12-09T02:29:37.381Z,18.90
2022-12-09T02:32:22.950Z,20.60
2022-12-09T02:35:13.022Z,20.40
2022-12-09T02:37:56.550Z,20.00
2022-12-09T02:40:35.489Z,22.10
2022-12-09T02:43:06.560Z,22.20
2022-12-09T02:45:36.505Z,22.30
2022-12-09T02:48:05.207Z,21.10
2022-12-09T02:50:36.759Z,21.60
2022-12-09T02:53:09.896Z,22.90
2022-12-09T02:55:40.007Z,24.10
2022-12-09T02:58:06.925Z,22.10
2022-12-09T03:00:34.986Z,23.00
2022-12-09T03:03:04.745Z,22.60
2022-12-09T03:05:55.729Z,21.60
2022-12-09T03:08:28.512Z,24.20
2022-12-09T03:11:07.128Z,23.30
2022-12-09T03:13:51.256Z,22.00
2022-12-09T03:16:36.651Z,23.00
2022-12-09T03:21:40.679Z,22.10
2022-12-09T03:24:09.784Z,17.30
2022-12-09T03:26:38.360Z,18.70
2022-12-09T03:29:09.261Z,19.50
2022-12-09T03:31:38.233Z,17.80
2022-12-09T03:34:08.539Z,19.50
2022-12-09T03:36:40.956Z,20.60
2022-12-09T03:39:16.503Z,20.10
2022-12-09T03:41:47.705Z,19.10
2022-12-09T03:44:25.441Z,20.30
2022-12-09T03:46:52.685Z,19.20
2022-12-09T03:49:19.770Z,19.40
2022-12-09T03:51:56.619Z,20.20
2022-12-09T03:54:33.364Z,19.70
2022-12-09T03:57:01.357Z,17.80
2022-12-09T03:59:32.881Z,17.90
2022-12-09T04:02:03.524Z,17.60
2022-12-09T04:04:30.586Z,15.90
2022-12-09T04:06:58.119Z,17.70
2022-12-09T04:09:25.313Z,14.60
2022-12-09T04:11:52.464Z,16.40
2022-12-09T04:14:19.353Z,18.20
2022-12-09T04:16:46.335Z,17.80
2022-12-09T04:19:13.211Z,16.80
2022-12-09T04:21:40.440Z,15.90
2022-12-09T04:24:07.978Z,15.30
2022-12-09T04:26:35.673Z,16.50
2022-12-09T04:29:03.104Z,15.90
2022-12-09T04:31:29.986Z,15.30
2022-12-09T04:33:56.950Z,15.30
2022-12-09T04:36:24.377Z,14.30
2022-12-09T04:38:51.725Z,15.60
2022-12-09T04:41:19.604Z,15.80
2022-12-09T04:43:48.734Z,18.00
2022-12-09T04:46:17.967Z,19.30
2022-12-09T04:48:45.743Z,18.90
2022-12-09T04:51:15.502Z,19.70
2022-12-09T04:53:43.374Z,18.00
2022-12-09T04:56:13.845Z,19.90
2022-12-09T04:58:41.026Z,18.70
2022-12-09T05:01:13.724Z,17.80
2022-12-09T05:03:41.340Z,18.80
2022-12-09T05:06:12.912Z,33.50
2022-12-09T05:08:41.690Z,22.50
2022-12-09T05:11:10.019Z,19.10
2022-12-09T05:13:37.558Z,18.00
2022-12-09T05:16:15.400Z,16.50
2022-12-09T05:18:45.144Z,15.40
2022-12-09T05:21:16.517Z,14.70
2022-12-09T05:23:44.413Z,16.70
2022-12-09T05:26:15.280Z,30.10
2022-12-09T05:28:42.480Z,32.30
2022-12-09T05:31:14.671Z,25.10
2022-12-09T05:33:43.138Z,30.80
2022-12-09T05:36:13.166Z,27.10
2022-12-09T05:38:41.094Z,30.20
2022-12-09T05:41:08.265Z,28.30
2022-12-09T05:43:36.889Z,25.70
2022-12-09T05:46:06.052Z,22.90
2022-12-09T05:48:34.663Z,21.00
2022-12-09T05:51:03.586Z,20.80
2022-12-09T05:53:32.135Z,19.10
2022-12-09T05:55:59.235Z,18.60
2022-12-09T05:58:26.400Z,14.50
2022-12-09T06:00:56.392Z,15.90
2022-12-09T06:03:24.098Z,28.00
2022-12-09T06:14:00.361Z,45.10
2022-12-09T06:16:59.531Z,34.70
2022-12-09T06:19:36.874Z,35.60
2022-12-09T06:22:15.683Z,40.10
2022-12-09T06:25:06.982Z,36.00
2022-12-09T06:28:11.182Z,37.70
2022-12-09T06:35:49.897Z,30.00
2022-12-09T06:42:27.085Z,20.50
2022-12-09T06:44:54.521Z,26.10
2022-12-09T06:47:21.499Z,36.30
2022-12-09T06:50:27.902Z,45.40
2022-12-09T06:54:03.773Z,49.20
2022-12-09T06:57:28.035Z,45.10
2022-12-09T07:04:06.294Z,74.70
2022-12-09T07:11:14.714Z,21.60
2022-12-09T07:14:22.299Z,24.20
2022-12-09T07:17:44.680Z,28.30
2022-12-09T07:21:04.476Z,33.60
2022-12-09T07:25:26.204Z,26.40
2022-12-09T07:30:26.254Z,24.40
2022-12-09T07:49:27.619Z,25.10
2022-12-09T07:57:31.863Z,47.20
2022-12-09T08:08:17.746Z,36.00
2022-12-09T08:11:35.175Z,30.00
2022-12-09T08:14:51.299Z,27.90
2022-12-09T08:17:41.952Z,27.60
2022-12-09T08:20:42.040Z,25.20
2022-12-09T08:23:25.005Z,24.20
2022-12-09T08:26:30.823Z,21.40
2022-12-09T08:29:26.194Z,20.10
2022-12-09T08:32:23.303Z,20.10
2022-12-09T08:35:17.685Z,21.20
2022-12-09T08:39:03.574Z,19.60
2022-12-09T08:42:05.071Z,20.90
2022-12-09T08:45:04.751Z,24.20
2022-12-09T08:47:32.084Z,25.40
2022-12-09T08:50:00.892Z,22.30
2022-12-09T08:53:19.760Z,30.40
2022-12-09T08:56:07.917Z,46.70
2022-12-09T08:58:45.999Z,34.30
2022-12-09T09:01:25.145Z,22.60
2022-12-09T09:03:56.680Z,17.70
2022-12-09T09:06:24.985Z,18.80
2022-12-09T09:08:58.268Z,14.30
2022-12-09T09:11:48.864Z,14.00
2022-12-09T09:14:27.821Z,12.10
2022-12-09T09:16:55.281Z,16.20
2022-12-09T09:19:25.764Z,14.00
2022-12-09T09:21:58.720Z,11.70
2022-12-09T09:24:56.260Z,10.90
2022-12-09T09:27:55.973Z,11.70
2022-12-09T09:30:22.923Z,11.70
2022-12-09T09:32:50.463Z,12.30
2022-12-09T09:35:17.406Z,12.60
2022-12-09T09:37:45.253Z,11.90
2022-12-09T09:40:12.897Z,11.70
2022-12-09T09:42:47.832Z,12.90
2022-12-09T09:45:19.314Z,10.50
2022-12-09T09:47:54.405Z,12.30
2022-12-09T09:50:37.814Z,11.60
2022-12-09T09:53:24.044Z,12.20
2022-12-09T09:55:58.282Z,11.90
2022-12-09T09:58:48.791Z,11.80
2022-12-09T10:01:18.085Z,11.80
2022-12-09T10:03:52.170Z,11.80
2022-12-09T10:06:35.285Z,11.90
2022-12-09T10:09:24.061Z,12.70
2022-12-09T10:12:00.546Z,12.90
2022-12-09T10:14:32.313Z,12.60
2022-12-09T10:17:15.666Z,11.50
2022-12-09T10:19:48.139Z,12.40
2022-12-09T10:22:21.464Z,11.30
2022-12-09T10:25:07.380Z,11.10
2022-12-09T10:28:17.430Z,11.60
2022-12-09T10:30:45.318Z,11.20
2022-12-09T10:33:14.883Z,12.20
2022-12-09T10:35:42.382Z,11.20
2022-12-09T10:38:20.268Z,11.70
2022-12-09T10:40:57.075Z,11.90
2022-12-09T10:43:39.246Z,11.60
2022-12-09T10:46:21.740Z,12.00
2022-12-09T10:48:49.755Z,11.90
2022-12-09T10:51:30.234Z,11.70
2022-12-09T10:54:13.381Z,11.80
2022-12-09T10:57:03.650Z,12.10
2022-12-09T10:59:32.091Z,12.10
2022-12-09T11:02:02.017Z,11.90
2022-12-09T11:04:32.861Z,11.70
2022-12-09T11:07:13.102Z,12.10
2022-12-09T11:09:49.305Z,11.30
2022-12-09T11:12:39.921Z,12.60
2022-12-09T11:15:10.984Z,11.00
2022-12-09T11:17:42.422Z,12.30
2022-12-09T11:20:21.750Z,13.20
2022-12-09T11:23:19.869Z,12.40
2022-12-09T11:26:20.844Z,12.00
2022-12-09T11:29:18.603Z,13.20
2022-12-09T11:31:47.199Z,12.00
2022-12-09T11:34:19.880Z,12.40
2022-12-09T11:36:52.918Z,12.80
2022-12-09T11:39:29.202Z,12.00
2022-12-09T11:42:45.176Z,11.60
2022-12-09T11:45:49.184Z,12.70
2022-12-09T11:49:15.253Z,12.70
2022-12-09T11:52:27.533Z,11.80
2022-12-09T12:02:54.021Z,13.40
2022-12-09T12:06:02.199Z,12.80
2022-12-09T12:09:14.990Z,12.50
2022-12-09T12:13:18.413Z,14.50
2022-12-09T12:21:35.518Z,12.60
2022-12-09T12:33:59.751Z,14.20
2022-12-09T12:37:04.348Z,14.30
2022-12-09T12:40:43.402Z,14.90
2022-12-09T12:44:32.006Z,14.80
2022-12-09T12:48:01.378Z,14.00
2022-12-09T12:51:07.863Z,15.20
2022-12-09T12:54:46.342Z,15.50
2022-12-09T12:58:19.005Z,13.20
2022-12-09T13:01:24.769Z,13.90
2022-12-09T13:05:10.789Z,13.10
2022-12-09T13:21:21.136Z,15.60
2022-12-09T13:25:22.575Z,16.60
2022-12-09T13:28:52.714Z,25.60
2022-12-09T13:32:44.566Z,19.50
2022-12-09T13:36:30.358Z,15.00
2022-12-09T13:40:55.009Z,14.70
2022-12-09T13:44:45.673Z,14.20
2022-12-09T13:48:27.996Z,21.20
2022-12-09T13:51:41.750Z,17.80
2022-12-09T13:55:40.799Z,20.20
2022-12-09T14:04:00.190Z,40.40
2022-12-09T14:07:56.420Z,34.20
2022-12-09T14:11:57.338Z,32.50
2022-12-09T14:19:50.139Z,23.20
2022-12-09T14:23:33.695Z,22.30
2022-12-09T14:44:23.696Z,27.60
2022-12-09T14:46:54.594Z,36.20
2022-12-09T14:49:27.842Z,28.30
2022-12-09T14:52:00.832Z,28.40
2022-12-09T14:54:38.569Z,28.80
2022-12-09T14:57:19.389Z,30.40
2022-12-09T14:59:53.061Z,24.50
2022-12-09T15:02:30.190Z,20.60
2022-12-09T15:05:01.629Z,20.60
2022-12-09T15:07:34.466Z,20.40
2022-12-09T15:10:17.488Z,20.70
2022-12-09T15:12:49.621Z,21.30
2022-12-09T15:15:39.805Z,23.30
2022-12-09T15:18:22.042Z,37.00
2022-12-09T15:20:57.007Z,21.30
2022-12-09T15:25:59.115Z,22.40
2022-12-09T15:28:32.483Z,22.80
2022-12-09T15:31:02.287Z,26.80
2022-12-09T15:33:38.875Z,25.70
2022-12-09T15:36:21.869Z,31.90
2022-12-09T15:38:58.398Z,29.40
2022-12-09T15:41:59.638Z,30.40
2022-12-09T15:44:32.982Z,32.90
2022-12-09T15:47:09.853Z,36.00
2022-12-09T15:49:57.785Z,43.20
2022-12-09T15:52:31.607Z,38.90
2022-12-09T15:55:06.966Z,48.20
2022-12-09T15:57:36.038Z,44.50
2022-12-09T16:00:05.516Z,40.90
2022-12-09T16:02:38.196Z,42.30
2022-12-09T16:05:09.707Z,39.00
2022-12-09T16:07:38.500Z,49.00
2022-12-09T16:10:10.109Z,44.50
2022-12-09T16:12:40.271Z,40.90
2022-12-09T16:15:12.509Z,41.30
2022-12-09T16:17:55.630Z,47.40
2022-12-09T16:20:34.828Z,40.80
2022-12-09T16:23:06.214Z,39.60
2022-12-09T16:25:43.397Z,41.00
2022-12-09T16:28:24.327Z,44.50
2022-12-09T16:30:58.856Z,49.80
2022-12-09T16:33:29.197Z,55.80
2022-12-09T16:36:05.208Z,59.50
2022-12-09T16:38:35.638Z,63.30
2022-12-09T16:41:08.363Z,73.10
2022-12-09T16:43:52.184Z,79.10
2022-12-09T16:46:20.300Z,78.80
2022-12-09T16:48:49.788Z,60.20
2022-12-09T16:51:25.035Z,49.10
2022-12-09T16:53:54.452Z,48.30
2022-12-09T16:56:28.276Z,46.90
2022-12-09T16:58:56.991Z,46.30
2022-12-09T17:01:34.099Z,46.00
2022-12-09T17:04:05.731Z,56.60
2022-12-09T17:06:33.867Z,42.30
2022-12-09T17:09:02.006Z,43.20
2022-12-09T17:11:30.231Z,43.80
2022-12-09T17:13:58.488Z,46.50
2022-12-09T17:16:26.954Z,45.60
2022-12-09T17:18:55.384Z,49.40
2022-12-09T17:21:23.527Z,48.50
2022-12-09T17:23:51.698Z,51.70
2022-12-09T17:26:20.800Z,52.20
2022-12-09T17:28:50.304Z,52.50
2022-12-09T17:31:21.881Z,51.30
2022-12-09T17:33:50.966Z,50.50
2022-12-09T17:36:19.685Z,51.60
2022-12-09T17:38:49.500Z,51.10
2022-12-09T17:41:20.996Z,49.90
2022-12-09T17:43:49.544Z,51.60
2022-12-09T17:46:18.025Z,51.50
2022-12-09T17:48:46.197Z,55.40
2022-12-09T17:51:18.182Z,54.50
2022-12-09T17:53:47.638Z,54.00
2022-12-09T17:56:20.039Z,50.50
2022-12-09T17:58:58.472Z,49.50
2022-12-09T18:01:27.464Z,49.60
2022-12-09T18:04:01.586Z,63.10
2022-12-09T18:06:34.659Z,54.90
2022-12-09T18:09:05.265Z,55.20
2022-12-09T18:11:34.008Z,55.80
2022-12-09T18:14:03.164Z,60.00
2022-12-09T18:16:31.844Z,60.20
2022-12-09T18:19:10.406Z,56.50
2022-12-09T18:21:39.884Z,56.00
2022-12-09T18:24:08.847Z,50.20
2022-12-09T18:26:41.572Z,53.70
2022-12-09T18:29:12.183Z,54.90
2022-12-09T18:31:40.983Z,52.70
2022-12-09T18:34:09.051Z,53.50
2022-12-09T18:36:37.340Z,51.90
2022-12-09T18:39:05.510Z,48.80
2022-12-09T18:41:34.572Z,47.40
2022-12-09T18:44:05.466Z,54.00
2022-12-09T18:46:37.097Z,52.20
2022-12-09T18:49:08.325Z,50.70
2022-12-09T18:51:37.260Z,48.70
2022-12-09T18:54:07.215Z,50.40
2022-12-09T18:56:37.185Z,47.60
2022-12-09T18:59:07.031Z,47.00
2022-12-09T19:01:40.444Z,45.80
2022-12-09T19:04:34.433Z,47.10
2022-12-09T19:07:04.489Z,45.50
2022-12-09T19:09:34.950Z,46.10
2022-12-09T19:12:37.778Z,45.00
2022-12-09T19:14:53.216Z,40.50
2022-12-09T19:17:22.009Z,44.60
2022-12-09T19:19:54.132Z,43.60
2022-12-09T19:24:54.721Z,43.50
2022-12-09T19:36:10.964Z,44.10
2022-12-09T19:51:24.509Z,38.00
2022-12-09T19:54:02.626Z,36.70
2022-12-09T19:56:33.807Z,33.30
2022-12-09T19:59:16.333Z,30.60
2022-12-09T20:01:48.476Z,29.40
2022-12-09T20:04:48.842Z,30.70
2022-12-09T20:07:20.110Z,30.60
2022-12-09T20:09:53.788Z,28.60
2022-12-09T20:12:25.340Z,30.20
2022-12-09T20:15:00.787Z,32.60
2022-12-09T20:17:32.219Z,30.90
2022-12-09T20:20:07.386Z,32.30
2022-12-09T20:22:45.342Z,33.70
2022-12-09T20:25:23.063Z,34.30
2022-12-09T20:27:53.881Z,35.90
2022-12-09T20:32:59.332Z,38.50
2022-12-09T20:35:28.775Z,39.10
2022-12-09T20:37:57.422Z,34.60
2022-12-09T20:40:27.675Z,36.70
2022-12-09T20:43:03.869Z,36.20
2022-12-09T20:45:39.480Z,36.20
2022-12-09T20:48:12.822Z,37.00
2022-12-09T20:50:52.519Z,36.40
2022-12-09T20:53:28.337Z,38.30
2022-12-09T20:56:01.700Z,39.30
2022-12-09T20:58:32.698Z,39.60
2022-12-09T21:01:09.016Z,39.90
2022-12-09T21:03:40.310Z,37.90
2022-12-09T21:06:15.584Z,37.80
2022-12-09T21:08:49.557Z,38.60
2022-12-09T21:11:24.918Z,36.40
2022-12-09T21:13:58.780Z,38.80
2022-12-09T21:16:37.498Z,37.60
2022-12-09T21:19:16.724Z,36.40
2022-12-09T21:21:53.401Z,37.70
2022-12-09T21:24:25.157Z,34.30
2022-12-09T21:26:57.530Z,37.20
2022-12-09T21:29:34.154Z,35.20
2022-12-09T21:32:03.056Z,36.10
2022-12-09T21:34:33.884Z,34.60
2022-12-09T21:37:05.913Z,33.80
2022-12-09T21:40:11.733Z,34.10
2022-12-09T21:42:43.837Z,34.10
2022-12-09T21:45:16.842Z,32.80
2022-12-09T21:47:51.713Z,32.10
2022-12-09T21:50:22.006Z,31.70
2022-12-09T21:52:52.260Z,28.80
2022-12-09T21:55:24.565Z,29.20
2022-12-09T21:57:57.834Z,28.90
2022-12-09T22:00:33.631Z,27.00
2022-12-09T22:03:11.913Z,26.90
2022-12-09T22:05:40.712Z,26.60
2022-12-09T22:08:31.965Z,27.30
2022-12-09T22:11:21.997Z,27.40
2022-12-09T22:14:01.084Z,27.40
2022-12-09T22:16:43.131Z,26.30
2022-12-09T22:19:21.189Z,26.70
2022-12-09T22:21:53.050Z,24.70
2022-12-09T22:24:35.909Z,25.40
2022-12-09T22:27:12.255Z,24.70
2022-12-09T22:29:55.468Z,25.80
2022-12-09T22:32:37.840Z,24.00
2022-12-09T22:35:16.160Z,23.40
2022-12-09T22:37:44.889Z,24.30
2022-12-09T22:40:23.088Z,26.20
2022-12-09T22:42:57.932Z,24.10
2022-12-09T22:45:27.993Z,23.00
2022-12-09T22:48:00.514Z,22.80
2022-12-09T22:50:50.174Z,23.00
2022-12-09T22:53:22.149Z,21.00
2022-12-09T22:55:56.658Z,22.20
2022-12-09T22:58:28.563Z,20.90
2022-12-09T23:03:32.443Z,21.90
2022-12-09T23:06:03.699Z,21.90
2022-12-09T23:08:41.027Z,20.30
2022-12-09T23:11:24.354Z,21.30
2022-12-09T23:13:55.701Z,20.50
2022-12-09T23:16:50.311Z,22.00
2022-12-09T23:19:26.469Z,19.50
2022-12-09T23:22:00.622Z,20.10
2022-12-09T23:24:36.003Z,21.30
2022-12-09T23:27:08.518Z,22.10
2022-12-09T23:29:43.018Z,20.90
2022-12-09T23:32:25.922Z,22.40
2022-12-09T23:35:07.077Z,21.50
2022-12-09T23:37:42.530Z,21.70
2022-12-09T23:40:12.019Z,21.80
2022-12-09T23:42:40.724Z,23.60
2022-12-09T23:45:15.615Z,21.40
2022-12-09T23:47:57.698Z,22.10
2022-12-09T23:50:29.447Z,23.60
2022-12-09T23:53:03.329Z,21.90
2022-12-09T23:55:35.228Z,20.50
2022-12-09T23:58:11.209Z,19.10
